Impacts METAR Board INFO
IDs:

KSLC - Salt Lake City Intl, UT, US

Updated at: 0038 UTC 12 Dec 2017
Potential Impact None Slight Moderate High
Time11/12Z 11/13Z 11/14Z 11/15Z 11/16Z 11/17Z 11/18Z 11/19Z 11/20Z 11/21Z 11/22Z 11/23Z 12/00Z
VIS0.25 0.25 0.25 0.13 0.13 0.25 0.5 0.5 0.25 0.25 0.25 0.25 0.25
CIG1 1 1 2 2 2 5 4 5 4 4 4 3
CoverOVXOVXOVXOVXOVXOVXOVCOVCOVCOVCOVCOVCOVC
FltCatLIFRLIFRLIFRLIFRLIFRLIFRLIFRLIFRLIFRLIFRLIFRLIFRLIFR
WXFZFGFZFGFZFGFZFGFZFGFZFGBR-SN BRBRBRBRBRBR
WDir000000050310350300350350
WSpd0 0 0 0 0 0 0 3 5 5 5 4 4
WGst-- -- -- -- -- -- -- -- -- -- -- -- --
Raw hourly METARs
KSLC 111154Z 00000KT 1/4SM R16L/0600V0700FT FZFG VV001 M06/M07 A3060 RMK AO2 SLP389 I6002 T10611067 11028 21061 56003 $
KSLC 111254Z 00000KT 1/4SM R16L/0700FT FZFG VV001 M05/M07 A3060 RMK AO2 SLP391 T10501067 $
KSLC 111354Z 00000KT 1/4SM R16L/0700V0800FT FZFG VV001 M04/M06 A3061 RMK AO2 SLP391 I1000 T10441061 $
KSLC 111454Z 00000KT 1/8SM R16L/0500V0700FT FZFG VV002 M04/M06 A3062 RMK AO2 TWR VIS 1/4 SLP395 I1001 I3001 T10441061 51005 VISNO NW RNWY $
KSLC 111554Z 00000KT 1/8SM R16L/0700V1000FT FZFG VV002 M04/M06 A3064 RMK AO2 TWR VIS 1/4 SLP406 I1001 T10441061 VISNO NW RNWY $
KSLC 111654Z 00000KT 1/4SM R16L/1000V1200FT FZFG VV002 M03/M04 A3065 RMK AO2 SLP406 I1001 T10281044 VISNO NW RNWY $
KSLC 111756Z 00000KT 1/2SM R16L/3500VP6000FT BR OVC005 M03/M03 A3064 RMK AO2 SFC VIS 1 3/4 T10281033 VISNO NW RNWY $
KSLC 111854Z 05003KT 1/2SM R16L/4000V5000FT -SN BR OVC004 M02/M04 A3063 RMK AO2 SFC VIS 1 1/4 SNB49 SLP401 P0000 I1000 T10221039 VISNO NW RNWY $
KSLC 111954Z 31005KT 1/4SM R16L/P6000FT BR OVC005 M02/M03 A3060 RMK AO2 SFC VIS 1 3/4 SNE01 SLP390 P0000 T10171033
KSLC 112054Z 35005KT 1/4SM R16L/P6000FT BR OVC004 M02/M03 A3059 RMK AO2 SFC VIS 1 1/4 SLP385 60000 I3000 T10171033 56012
KSLC 112154Z 30005KT 1/4SM R16L/P6000FT BR OVC004 M02/M03 A3057 RMK AO2 SFC VIS 1 1/2 SLP380 T10221033
KSLC 112302Z 35004KT 1/4SM R16L/P6000FT BR OVC004 M02/M03 A3056 RMK AO2 SFC VIS 1 1/4 T10221033
KSLC 112354Z 35004KT 1/4SM R16L/P6000FT BR OVC003 M03/M03 A3057 RMK AO2 SFC VIS 1 SLP383 60000 I6000 T10281033 11011 21028 55007